ブエノスアイレス/エセイサ の空港の天気 - METARとTAF

エセイサ国際空港 ( SAEZ / EZE ) - アルゼンチン ブエノスアイレス州、Ezeiza
飛行場実況気象(Metar)
観測時間10/25 15:00 ART (10/25 18:00 UTC)
風向・風速西南西 26m/s
視程8000m
天気現象
全天の4割程度の雲 雲底高度 300m
全天の8割程度の雲 雲底高度 610m
気温21℃
湿度94%
気圧1006hPa
METARSAEZ 2501800Z 05009KT 8000 SCT010 BKN020 21/20 Q1006 NOSIG
過去の天気等 Google飛行場航空写真 Wunderground天気予報

過去48時間のMETAR

飛行場予報(TAF)
発表時間: 10/25 14:00 ART (10/25 17:00 UTC)
予報対象時間: 25日15時 ART ~ 26日15時 ART
風向・風速東北東 3m/s
視程10km以上
少しの雲 雲底高度 240m
全天の4割程度の雲 雲底高度 910m
全天を覆う雲 雲底高度 910m
25日15時 ART ~ 25日18時 ART に一時的に
視程3000m
天気現象弱い雨もや
全天の8割程度の雲 雲底高度 240m
全天を覆う雲 雲底高度 1520m
25日18時 ART ~ 25日20時 ART に徐々に
風向・風速南南西 5m/s
視程10km以上
天気現象運行に影響にある天気現象が終了
全天の4割程度の雲 雲底高度 910m
全天を覆う雲 雲底高度 1520m
25日23時 ART ~ 26日4時 ART に一時的に
風向・風速南南西 3m/s
視程5000m
天気現象もや
全天の4割程度の雲 雲底高度 300m
26日5時 ART ~ 26日8時 ART に徐々に
視程10km以上
なし
TAF SAEZ 251700Z 2518/2618 07005KT 9999 FEW008 SCT030 OVC030 TX24/2618Z TN11/2610Z
TEMPO 2518/2521 3000 -RABR BKN008 OVC050
BECMG 2521/2523 20010KT 9999 NSW SCT030 OVC050
TEMPO 2602/2607 20005KT 5000 BR SCT010
BECMG 2608/2611 CAVOK